createdAt,value
2023-02-11T00:00:53.435Z,25.73
2023-02-11T00:03:36.922Z,26.73
2023-02-11T00:06:10.593Z,26.45
2023-02-11T00:08:45.005Z,26.98
2023-02-11T00:11:29.849Z,21.45
2023-02-11T00:14:22.518Z,24.90
2023-02-11T00:16:58.335Z,24.75
2023-02-11T00:19:27.479Z,24.77
2023-02-11T00:21:54.413Z,23.80
2023-02-11T00:24:30.118Z,25.27
2023-02-11T00:27:04.707Z,24.40
2023-02-11T00:29:41.972Z,23.35
2023-02-11T00:32:12.163Z,24.58
2023-02-11T00:34:48.523Z,25.08
2023-02-11T00:37:26.139Z,24.92
2023-02-11T00:40:19.681Z,24.30
2023-02-11T00:43:01.366Z,25.02
2023-02-11T00:45:38.236Z,25.52
2023-02-11T00:48:05.397Z,24.20
2023-02-11T00:50:38.475Z,23.40
2023-02-11T00:53:22.444Z,24.85
2023-02-11T00:56:04.097Z,24.90
2023-02-11T00:58:31.400Z,24.08
2023-02-11T01:01:01.326Z,23.17
2023-02-11T01:03:34.771Z,23.45
2023-02-11T01:06:06.176Z,24.77
2023-02-11T01:08:58.231Z,24.42
2023-02-11T01:11:26.406Z,22.87
2023-02-11T01:13:54.233Z,24.80
2023-02-11T01:16:21.890Z,23.67
2023-02-11T01:18:55.215Z,23.05
2023-02-11T01:21:34.785Z,22.95
2023-02-11T01:24:11.808Z,23.55
2023-02-11T01:26:39.578Z,23.70
2023-02-11T01:29:16.720Z,23.58
2023-02-11T01:31:49.049Z,22.83
2023-02-11T01:34:19.455Z,24.45
2023-02-11T01:36:46.387Z,21.92
2023-02-11T01:39:16.222Z,25.13
2023-02-11T01:41:42.987Z,24.45
2023-02-11T01:44:37.422Z,24.33
2023-02-11T01:47:07.520Z,24.70
2023-02-11T01:50:02.374Z,23.15
2023-02-11T01:52:33.638Z,23.92
2023-02-11T01:55:31.938Z,23.67
2023-02-11T01:58:13.615Z,22.77
2023-02-11T02:00:41.899Z,23.13
2023-02-11T02:03:20.718Z,23.67
2023-02-11T02:05:48.154Z,22.42
2023-02-11T02:08:34.770Z,22.60
2023-02-11T02:11:11.353Z,22.38
2023-02-11T02:13:43.575Z,22.63
2023-02-11T02:16:19.754Z,23.00
2023-02-11T02:19:32.043Z,21.65
2023-02-11T02:22:34.521Z,22.63
2023-02-11T02:25:27.439Z,22.00
2023-02-11T02:28:21.668Z,21.58
2023-02-11T02:31:14.710Z,20.83
2023-02-11T02:34:23.856Z,20.58
2023-02-11T02:37:16.794Z,20.90
2023-02-11T02:39:46.030Z,20.15
2023-02-11T02:42:22.687Z,21.70
2023-02-11T02:44:53.635Z,19.70
2023-02-11T02:47:20.438Z,20.85
2023-02-11T02:49:57.403Z,21.35
2023-02-11T02:53:07.914Z,20.90
2023-02-11T02:55:57.166Z,21.13
2023-02-11T02:58:49.995Z,20.98
2023-02-11T03:01:57.699Z,20.88
2023-02-11T03:05:13.537Z,19.40
2023-02-11T03:07:55.773Z,20.67
2023-02-11T03:10:40.481Z,19.60
2023-02-11T03:13:31.021Z,20.70
2023-02-11T03:16:31.874Z,20.67
2023-02-11T03:19:30.100Z,20.88
2023-02-11T03:22:10.156Z,20.13
2023-02-11T03:24:56.503Z,20.98
2023-02-11T03:27:46.708Z,21.08
2023-02-11T03:30:21.478Z,21.73
2023-02-11T03:33:24.175Z,21.15
2023-02-11T03:36:17.113Z,21.55
2023-02-11T03:39:01.155Z,20.40
2023-02-11T03:41:38.895Z,20.30
2023-02-11T03:44:07.483Z,21.02
2023-02-11T03:46:39.663Z,20.45
2023-02-11T03:49:20.634Z,21.65
2023-02-11T03:51:51.438Z,19.95
2023-02-11T03:54:22.569Z,21.27
2023-02-11T03:56:55.321Z,20.10
2023-02-11T03:59:52.117Z,20.60
2023-02-11T04:02:24.505Z,21.25
2023-02-11T04:04:51.272Z,19.73
2023-02-11T04:07:27.311Z,20.95
2023-02-11T04:09:54.413Z,20.15
2023-02-11T04:12:21.633Z,20.33
2023-02-11T04:14:48.817Z,20.20
2023-02-11T04:17:23.040Z,20.45
2023-02-11T04:20:04.400Z,20.35
2023-02-11T04:22:31.464Z,21.25
2023-02-11T04:24:58.368Z,21.23
2023-02-11T04:27:25.915Z,20.77
2023-02-11T04:30:05.062Z,20.70
2023-02-11T04:32:42.844Z,20.55
2023-02-11T04:35:11.083Z,21.23
2023-02-11T04:37:37.709Z,20.20
2023-02-11T04:40:05.072Z,19.80
2023-02-11T04:42:32.528Z,18.80
2023-02-11T04:45:03.098Z,18.77
2023-02-11T04:47:44.059Z,21.15
2023-02-11T04:50:11.557Z,19.65
2023-02-11T04:52:41.486Z,19.23
2023-02-11T04:55:11.777Z,19.98
2023-02-11T04:57:49.987Z,19.08
2023-02-11T05:00:26.335Z,18.70
2023-02-11T05:03:01.478Z,19.55
2023-02-11T05:05:31.219Z,18.98
2023-02-11T05:07:58.096Z,16.67
2023-02-11T05:10:24.922Z,18.60
2023-02-11T05:12:56.075Z,18.33
2023-02-11T05:15:27.002Z,18.67
2023-02-11T05:17:54.284Z,19.48
2023-02-11T05:20:26.380Z,17.80
2023-02-11T05:22:56.599Z,18.63
2023-02-11T05:25:26.783Z,18.52
2023-02-11T05:27:53.667Z,17.05
2023-02-11T05:30:29.266Z,17.75
2023-02-11T05:32:56.147Z,18.10
2023-02-11T05:35:25.464Z,18.58
2023-02-11T05:38:03.800Z,17.73
2023-02-11T05:40:52.095Z,18.20
2023-02-11T05:43:39.944Z,18.15
2023-02-11T05:46:18.673Z,17.05
2023-02-11T05:48:48.444Z,18.50
2023-02-11T05:51:15.220Z,18.83
2023-02-11T05:53:42.048Z,18.17
2023-02-11T05:56:25.346Z,17.80
2023-02-11T05:58:57.039Z,17.20
2023-02-11T06:01:23.761Z,17.43
2023-02-11T06:03:51.594Z,18.90
2023-02-11T06:06:29.941Z,17.27
2023-02-11T06:08:57.817Z,17.48
2023-02-11T06:11:24.811Z,18.33
2023-02-11T06:13:59.099Z,17.25
2023-02-11T06:16:38.740Z,17.73
2023-02-11T06:19:05.469Z,17.73
2023-02-11T06:21:43.313Z,17.73
2023-02-11T06:24:38.503Z,17.45
2023-02-11T06:27:06.114Z,19.27
2023-02-11T06:29:33.475Z,18.63
2023-02-11T06:32:04.973Z,18.25
2023-02-11T06:34:31.850Z,18.20
2023-02-11T06:36:58.740Z,17.75
2023-02-11T06:39:29.955Z,18.52
2023-02-11T06:42:06.424Z,17.67
2023-02-11T06:44:34.715Z,19.15
2023-02-11T06:47:07.088Z,18.15
2023-02-11T06:49:34.044Z,18.45
2023-02-11T06:52:07.304Z,19.55
2023-02-11T06:54:34.786Z,17.42
2023-02-11T06:57:02.109Z,18.65
2023-02-11T06:59:36.199Z,18.20
2023-02-11T07:02:06.162Z,18.92
2023-02-11T07:04:38.411Z,18.60
2023-02-11T07:07:16.328Z,18.95
2023-02-11T07:09:43.464Z,18.58
2023-02-11T07:12:16.606Z,17.88
2023-02-11T07:14:49.389Z,18.13
2023-02-11T07:17:35.214Z,16.90
2023-02-11T07:20:12.745Z,18.05
2023-02-11T07:22:45.290Z,16.80
2023-02-11T07:25:22.410Z,17.02
2023-02-11T07:27:50.435Z,17.15
2023-02-11T07:30:18.587Z,16.85
2023-02-11T07:32:49.219Z,16.13
2023-02-11T07:35:17.180Z,16.00
2023-02-11T07:37:44.197Z,15.15
2023-02-11T07:40:12.879Z,16.65
2023-02-11T07:42:48.222Z,15.43
2023-02-11T07:45:17.929Z,16.88
2023-02-11T07:47:48.950Z,15.13
2023-02-11T07:50:18.616Z,16.13
2023-02-11T07:52:45.445Z,17.00
2023-02-11T07:55:12.388Z,16.98
2023-02-11T07:57:42.034Z,16.73
2023-02-11T08:00:11.680Z,16.77
2023-02-11T08:02:40.778Z,15.82
2023-02-11T08:05:07.768Z,14.77
2023-02-11T08:07:37.638Z,17.20
2023-02-11T08:10:09.089Z,17.70
2023-02-11T08:12:36.046Z,17.98
2023-02-11T08:15:02.923Z,17.20
2023-02-11T08:20:48.636Z,15.85
2023-02-11T08:23:29.278Z,15.60
2023-02-11T08:26:04.237Z,15.13
2023-02-11T08:28:31.516Z,15.65
2023-02-11T08:31:03.796Z,16.27
2023-02-11T08:33:31.317Z,16.58
2023-02-11T08:36:07.377Z,16.55
2023-02-11T08:38:38.678Z,15.38
2023-02-11T08:41:18.183Z,14.85
2023-02-11T08:43:49.646Z,15.07
2023-02-11T08:46:23.003Z,15.70
2023-02-11T08:48:56.864Z,15.95
2023-02-11T08:51:29.518Z,15.98
2023-02-11T08:56:43.203Z,15.50
2023-02-11T08:59:13.910Z,15.93
2023-02-11T09:01:58.617Z,17.20
2023-02-11T09:04:41.119Z,14.82
2023-02-11T09:07:12.241Z,18.17
2023-02-11T09:12:29.478Z,18.02
2023-02-11T09:15:08.314Z,18.88
2023-02-11T09:17:35.224Z,18.83
2023-02-11T09:20:05.125Z,19.75
2023-02-11T09:22:33.177Z,18.80
2023-02-11T09:25:03.325Z,18.75
2023-02-11T09:27:30.139Z,20.48
2023-02-11T09:30:06.655Z,17.52
2023-02-11T09:32:52.404Z,17.63
2023-02-11T09:35:19.458Z,19.98
2023-02-11T09:37:53.400Z,19.83
2023-02-11T09:40:23.030Z,21.00
2023-02-11T09:43:14.582Z,20.33
2023-02-11T09:45:52.988Z,20.05
2023-02-11T09:48:31.600Z,18.50
2023-02-11T09:51:06.960Z,20.83
2023-02-11T09:53:47.861Z,20.65
2023-02-11T09:56:24.864Z,20.65
2023-02-11T09:58:52.098Z,20.15
2023-02-11T10:01:49.298Z,19.88
2023-02-11T10:04:26.892Z,19.23
2023-02-11T10:07:03.638Z,22.58
2023-02-11T10:10:08.130Z,23.10
2023-02-11T10:12:53.556Z,21.65
2023-02-11T10:15:53.204Z,22.33
2023-02-11T10:18:57.927Z,22.40
2023-02-11T10:22:02.789Z,22.95
2023-02-11T10:24:35.331Z,19.35
2023-02-11T10:30:19.359Z,21.65
2023-02-11T10:32:51.608Z,21.15
2023-02-11T10:38:16.502Z,19.50
2023-02-11T10:40:46.211Z,19.58
2023-02-11T10:43:29.004Z,20.42
2023-02-11T10:48:54.325Z,19.23
2023-02-11T10:51:51.849Z,21.75
2023-02-11T10:54:37.609Z,19.38
2023-02-11T10:57:07.706Z,22.17
2023-02-11T10:59:40.514Z,22.10
2023-02-11T11:02:35.317Z,20.88
2023-02-11T11:05:21.406Z,20.00
2023-02-11T11:08:13.492Z,18.08
2023-02-11T11:11:04.042Z,19.57
2023-02-11T11:13:37.093Z,19.05
2023-02-11T11:16:30.737Z,18.23
2023-02-11T11:19:08.522Z,20.23
2023-02-11T11:21:42.923Z,18.70
2023-02-11T11:24:31.476Z,20.40
2023-02-11T11:27:04.205Z,19.75
2023-02-11T11:29:55.552Z,18.20
2023-02-11T11:32:33.875Z,21.17
2023-02-11T11:38:33.353Z,21.35
2023-02-11T11:41:23.447Z,20.98
2023-02-11T11:44:30.716Z,20.75
2023-02-11T11:47:27.445Z,20.00
2023-02-11T11:50:02.257Z,19.25
2023-02-11T11:52:54.454Z,20.17
2023-02-11T11:55:33.051Z,18.42
2023-02-11T11:58:02.731Z,19.73
2023-02-11T12:00:43.090Z,20.60
2023-02-11T12:03:31.194Z,18.35
2023-02-11T12:06:25.328Z,18.73
2023-02-11T12:11:47.638Z,18.58
2023-02-11T12:14:39.493Z,19.38
2023-02-11T12:17:50.948Z,17.65
2023-02-11T12:20:33.275Z,18.83
2023-02-11T12:23:18.944Z,18.38
2023-02-11T12:25:58.470Z,19.40
2023-02-11T12:29:10.477Z,18.33
2023-02-11T12:32:24.875Z,18.75
2023-02-11T12:35:19.093Z,17.95
2023-02-11T12:38:08.544Z,17.52
2023-02-11T12:41:02.206Z,18.67
2023-02-11T12:43:46.191Z,17.42
2023-02-11T12:46:39.109Z,18.33
2023-02-11T12:49:47.419Z,17.15
2023-02-11T12:52:47.925Z,16.70
2023-02-11T12:55:57.292Z,18.23
2023-02-11T12:58:45.723Z,18.48
2023-02-11T13:01:46.532Z,18.15
2023-02-11T13:04:56.219Z,18.45
2023-02-11T13:07:56.776Z,18.80
2023-02-11T13:10:37.820Z,17.60
2023-02-11T13:13:19.462Z,16.83
2023-02-11T13:15:58.287Z,18.38
2023-02-11T13:18:56.028Z,17.90
2023-02-11T13:21:54.683Z,18.58
2023-02-11T13:24:51.986Z,18.25
2023-02-11T13:27:38.751Z,17.08
2023-02-11T13:30:45.507Z,19.13
2023-02-11T13:33:35.786Z,19.35
2023-02-11T13:36:23.724Z,16.63
2023-02-11T13:39:12.665Z,16.42
2023-02-11T13:41:52.919Z,15.82
2023-02-11T13:44:28.513Z,18.00
2023-02-11T13:47:17.997Z,19.20
2023-02-11T13:50:00.718Z,19.05
2023-02-11T13:55:25.518Z,18.45
2023-02-11T13:58:36.125Z,17.10
2023-02-11T14:01:41.626Z,17.73
2023-02-11T14:04:45.495Z,17.48
2023-02-11T14:07:48.928Z,19.90
2023-02-11T14:10:45.802Z,19.23
2023-02-11T14:13:34.874Z,18.75
2023-02-11T14:16:36.336Z,17.35
2023-02-11T14:19:06.941Z,20.52
2023-02-11T14:21:41.854Z,19.80
2023-02-11T14:24:13.268Z,16.85
2023-02-11T14:27:23.640Z,15.40
2023-02-11T14:30:24.610Z,16.48
2023-02-11T14:33:44.143Z,18.92
2023-02-11T14:36:40.864Z,17.63
2023-02-11T14:39:31.620Z,16.48
2023-02-11T14:42:07.588Z,19.48
2023-02-11T14:44:37.732Z,16.77
2023-02-11T14:47:19.179Z,20.10
2023-02-11T14:49:47.729Z,20.92
2023-02-11T14:52:41.808Z,19.55
2023-02-11T14:55:34.472Z,20.40
2023-02-11T14:58:27.428Z,17.80
2023-02-11T15:03:41.661Z,21.45
2023-02-11T15:06:31.394Z,17.17
2023-02-11T15:09:13.492Z,17.63
2023-02-11T15:11:43.299Z,18.88
2023-02-11T15:14:19.190Z,18.27
2023-02-11T15:16:47.828Z,20.00
2023-02-11T15:19:28.631Z,17.73
2023-02-11T15:21:59.750Z,18.25
2023-02-11T15:24:29.817Z,20.98
2023-02-11T15:27:21.073Z,20.40
2023-02-11T15:29:56.364Z,20.98
2023-02-11T15:32:36.887Z,20.42
2023-02-11T15:35:10.114Z,19.17
2023-02-11T15:37:37.137Z,16.50
2023-02-11T15:40:23.003Z,16.98
2023-02-11T15:42:58.342Z,17.30
2023-02-11T15:45:35.431Z,20.42
2023-02-11T15:48:12.934Z,20.23
2023-02-11T15:50:42.294Z,16.10
2023-02-11T15:53:27.399Z,21.02
2023-02-11T15:56:22.248Z,18.98
2023-02-11T15:59:19.321Z,20.65
2023-02-11T16:01:48.595Z,17.52
2023-02-11T16:04:22.079Z,21.17
2023-02-11T16:06:51.155Z,19.17
2023-02-11T16:09:41.431Z,17.55
2023-02-11T16:15:47.030Z,20.52
2023-02-11T16:18:28.461Z,20.63
2023-02-11T16:21:02.670Z,20.20
2023-02-11T16:23:34.847Z,20.33
2023-02-11T16:26:12.652Z,20.00
2023-02-11T16:28:46.691Z,23.42
2023-02-11T16:31:13.869Z,23.23
2023-02-11T16:33:43.193Z,22.45
2023-02-11T16:36:18.195Z,25.58
2023-02-11T16:38:45.093Z,25.55
2023-02-11T16:41:20.579Z,26.40
2023-02-11T16:43:53.162Z,26.92
2023-02-11T16:48:47.153Z,26.35
2023-02-11T16:51:18.817Z,24.95
2023-02-11T16:53:45.989Z,25.33
2023-02-11T16:56:19.476Z,26.05
2023-02-11T16:59:03.382Z,24.15
2023-02-11T17:01:36.489Z,25.55
2023-02-11T17:04:04.711Z,25.85
2023-02-11T17:06:32.005Z,25.67
2023-02-11T17:09:00.482Z,24.83
2023-02-11T17:11:29.775Z,26.15
2023-02-11T17:14:05.326Z,26.27
2023-02-11T17:16:36.330Z,25.75
2023-02-11T17:19:07.132Z,26.05
2023-02-11T17:21:34.173Z,26.65
2023-02-11T17:24:01.547Z,26.75
2023-02-11T17:29:12.155Z,27.40
2023-02-11T17:31:47.051Z,27.88
2023-02-11T17:34:22.971Z,28.08
2023-02-11T17:37:00.356Z,27.55
2023-02-11T17:39:27.904Z,28.05
2023-02-11T17:41:54.794Z,27.50
2023-02-11T17:44:22.016Z,28.73
2023-02-11T17:47:03.150Z,27.60
2023-02-11T17:49:34.030Z,26.55
2023-02-11T17:52:01.402Z,26.98
2023-02-11T17:54:33.384Z,26.13
2023-02-11T17:57:00.345Z,26.85
2023-02-11T17:59:31.887Z,26.30
2023-02-11T18:02:05.534Z,25.88
2023-02-11T18:04:34.247Z,25.95
2023-02-11T18:07:20.318Z,25.50
2023-02-11T18:09:49.860Z,25.15
2023-02-11T18:12:31.395Z,25.67
2023-02-11T18:14:58.417Z,25.40
2023-02-11T18:17:25.653Z,26.25
2023-02-11T18:20:00.744Z,27.02
2023-02-11T18:22:38.736Z,26.45
2023-02-11T18:25:13.350Z,27.17
2023-02-11T18:27:51.822Z,27.38
2023-02-11T18:30:48.459Z,25.40
2023-02-11T18:33:28.213Z,25.20
2023-02-11T18:35:57.743Z,26.67
2023-02-11T18:38:44.565Z,26.45
2023-02-11T18:41:36.639Z,26.70
2023-02-11T18:44:28.748Z,28.73
2023-02-11T18:47:07.813Z,28.27
2023-02-11T18:49:43.536Z,26.73
2023-02-11T18:52:21.489Z,26.80
2023-02-11T18:54:52.483Z,28.50
2023-02-11T18:57:31.272Z,29.50
2023-02-11T19:00:08.061Z,30.73
2023-02-11T19:02:49.151Z,30.98
2023-02-11T19:05:16.734Z,32.55
2023-02-11T19:07:47.156Z,30.63
2023-02-11T19:10:14.303Z,30.02
2023-02-11T19:12:42.188Z,30.70
2023-02-11T19:15:09.288Z,30.40
2023-02-11T19:17:41.484Z,28.08
2023-02-11T19:20:09.219Z,24.35
2023-02-11T19:22:41.829Z,28.63
2023-02-11T19:27:53.343Z,28.38
2023-02-11T19:30:20.831Z,25.85
2023-02-11T19:32:53.345Z,27.23
2023-02-11T19:37:54.839Z,28.90
2023-02-11T19:40:21.695Z,23.58
2023-02-11T19:42:51.416Z,32.42
2023-02-11T19:45:20.580Z,30.08
2023-02-11T19:47:47.440Z,29.55
2023-02-11T19:50:14.423Z,30.85
2023-02-11T19:52:41.291Z,23.73
2023-02-11T19:55:08.732Z,24.08
2023-02-11T19:57:59.693Z,24.20
2023-02-11T20:00:26.651Z,30.52
2023-02-11T20:02:53.581Z,30.55
2023-02-11T20:05:20.424Z,30.30
2023-02-11T20:07:59.661Z,28.60
2023-02-11T20:10:33.614Z,28.33
2023-02-11T20:13:06.625Z,27.23
2023-02-11T20:15:34.612Z,29.38
2023-02-11T20:18:02.078Z,28.90
2023-02-11T20:20:28.881Z,27.70
2023-02-11T20:22:55.765Z,28.65
2023-02-11T20:25:22.725Z,27.35
2023-02-11T20:27:51.254Z,28.50
2023-02-11T20:30:28.555Z,28.65
2023-02-11T20:33:01.762Z,27.13
2023-02-11T20:35:28.723Z,27.80
2023-02-11T20:37:56.288Z,26.98
2023-02-11T20:40:28.260Z,27.13
2023-02-11T20:42:57.003Z,27.70
2023-02-11T20:45:25.001Z,27.80
2023-02-11T20:48:01.901Z,23.08
2023-02-11T20:50:30.018Z,27.52
2023-02-11T20:53:10.493Z,27.80
2023-02-11T20:55:40.574Z,28.60
2023-02-11T20:58:08.369Z,26.52
2023-02-11T21:00:38.436Z,27.38
2023-02-11T21:03:10.927Z,26.40
2023-02-11T21:05:39.364Z,26.83
2023-02-11T21:08:08.081Z,26.33
2023-02-11T21:10:38.863Z,26.38
2023-02-11T21:13:05.953Z,24.73
2023-02-11T21:15:32.902Z,23.55
2023-02-11T21:18:02.964Z,25.27
2023-02-11T21:20:40.388Z,23.98
2023-02-11T21:23:12.268Z,25.23
2023-02-11T21:25:40.475Z,24.10
2023-02-11T21:28:13.867Z,24.48
2023-02-11T21:30:44.938Z,24.65
2023-02-11T21:33:13.230Z,23.00
2023-02-11T21:35:43.227Z,23.83
2023-02-11T21:38:18.708Z,25.30
2023-02-11T21:40:46.373Z,24.13
2023-02-11T21:43:34.736Z,24.02
2023-02-11T21:46:41.290Z,23.95
2023-02-11T21:49:12.701Z,24.98
2023-02-11T21:51:48.780Z,20.70
2023-02-11T21:54:19.184Z,23.52
2023-02-11T21:56:55.173Z,24.75
2023-02-11T21:59:45.738Z,25.05
2023-02-11T22:02:24.341Z,24.63
2023-02-11T22:04:57.829Z,26.02
2023-02-11T22:07:31.029Z,25.23
2023-02-11T22:10:01.046Z,24.30
2023-02-11T22:12:37.886Z,25.98
2023-02-11T22:15:05.902Z,25.35
2023-02-11T22:17:34.687Z,25.42
2023-02-11T22:20:12.448Z,19.75
2023-02-11T22:22:49.976Z,25.27
2023-02-11T22:25:29.198Z,27.00
2023-02-11T22:27:57.078Z,24.23
2023-02-11T22:30:52.689Z,24.88
2023-02-11T22:33:26.011Z,25.77
2023-02-11T22:36:09.001Z,24.45
2023-02-11T22:38:40.136Z,26.48
2023-02-11T22:41:11.364Z,26.05
2023-02-11T22:43:38.988Z,25.25
2023-02-11T22:46:15.674Z,26.33
2023-02-11T22:49:17.690Z,25.88
2023-02-11T22:51:49.792Z,24.30
2023-02-11T22:54:40.081Z,25.83
2023-02-11T22:57:06.921Z,24.23
2023-02-11T22:59:39.803Z,23.23
2023-02-11T23:02:10.077Z,24.48
2023-02-11T23:04:37.261Z,22.40
2023-02-11T23:07:09.329Z,24.55
2023-02-11T23:09:45.189Z,23.20
2023-02-11T23:12:15.182Z,22.13
2023-02-11T23:14:45.046Z,22.23
2023-02-11T23:17:12.033Z,22.80
2023-02-11T23:19:48.591Z,21.60
2023-02-11T23:22:23.837Z,21.55
2023-02-11T23:24:50.868Z,21.05
2023-02-11T23:27:29.506Z,20.40
2023-02-11T23:32:53.322Z,20.20
2023-02-11T23:35:44.958Z,22.15
2023-02-11T23:38:19.536Z,19.83
2023-02-11T23:40:46.616Z,20.77
2023-02-11T23:43:17.944Z,20.08
2023-02-11T23:48:31.145Z,20.23
2023-02-11T23:53:45.385Z,19.45
2023-02-11T23:56:27.671Z,18.10
2023-02-11T23:58:57.465Z,18.00
